createdAt,value
2022-10-31T00:00:28.352Z,101376.00
2022-10-31T00:05:22.334Z,101376.94
2022-10-31T00:10:17.150Z,101382.25
2022-10-31T00:15:12.262Z,101357.22
2022-10-31T00:20:07.589Z,101374.38
2022-10-31T00:25:01.101Z,101359.78
2022-10-31T00:29:54.158Z,101339.16
2022-10-31T00:34:48.511Z,101352.88
2022-10-31T00:39:41.586Z,101370.00
2022-10-31T00:44:35.904Z,101381.41
2022-10-31T00:49:29.157Z,101361.72
2022-10-31T00:54:22.569Z,101351.34
2022-10-31T00:59:16.490Z,101376.44
2022-10-31T01:04:10.369Z,101351.34
2022-10-31T01:09:03.690Z,101368.28
2022-10-31T01:13:56.724Z,101357.50
2022-10-31T01:18:49.993Z,101366.34
2022-10-31T01:23:43.344Z,101367.53
2022-10-31T01:28:44.571Z,101371.44
2022-10-31T01:33:38.883Z,101377.63
2022-10-31T01:38:36.090Z,101355.19
2022-10-31T01:43:53.611Z,101351.06
2022-10-31T01:48:47.358Z,101343.88
2022-10-31T01:53:41.638Z,101343.13
2022-10-31T01:58:35.047Z,101357.50
2022-10-31T02:03:30.118Z,101365.56
2022-10-31T02:08:31.958Z,101339.69
2022-10-31T02:18:19.166Z,101337.72
2022-10-31T02:23:29.656Z,101352.28
2022-10-31T02:28:22.324Z,101350.63
2022-10-31T02:33:53.265Z,101349.00
2022-10-31T02:38:49.056Z,101354.16
2022-10-31T02:43:50.935Z,101351.75
2022-10-31T02:48:52.206Z,101341.91
2022-10-31T02:53:45.273Z,101354.31
2022-10-31T02:58:44.263Z,101358.00
2022-10-31T03:03:52.866Z,101325.97
2022-10-31T03:09:08.189Z,101364.25
2022-10-31T03:14:12.510Z,101344.88
2022-10-31T03:19:13.951Z,101328.78
2022-10-31T03:24:08.641Z,101350.97
2022-10-31T03:29:08.243Z,101349.19
2022-10-31T03:34:07.888Z,101343.19
2022-10-31T03:39:06.447Z,101324.31
2022-10-31T03:44:29.706Z,101338.56
2022-10-31T03:49:26.634Z,101306.25
2022-10-31T03:54:33.955Z,101325.03
2022-10-31T03:59:34.857Z,101347.47
2022-10-31T04:04:28.994Z,101340.97
2022-10-31T04:09:23.743Z,101350.31
2022-10-31T04:14:17.757Z,101368.72
2022-10-31T04:19:14.050Z,101343.63
2022-10-31T04:24:09.796Z,101340.97
2022-10-31T04:29:03.585Z,101340.25
2022-10-31T04:33:57.535Z,101344.72
2022-10-31T04:38:50.822Z,101346.53
2022-10-31T04:43:59.774Z,101367.25
2022-10-31T04:48:54.351Z,101375.13
2022-10-31T04:53:48.318Z,101353.38
2022-10-31T04:59:00.319Z,101346.69
2022-10-31T05:03:59.683Z,101323.38
2022-10-31T05:08:53.385Z,101367.31
2022-10-31T05:13:47.402Z,101351.75
2022-10-31T05:18:39.990Z,101346.78
2022-10-31T05:23:51.774Z,101325.28
2022-10-31T05:28:45.698Z,101340.69
2022-10-31T05:33:39.179Z,101351.66
2022-10-31T05:38:51.334Z,101356.19
2022-10-31T05:43:52.713Z,101354.16
2022-10-31T05:48:51.490Z,101363.03
2022-10-31T05:54:03.726Z,101376.22
2022-10-31T05:58:58.122Z,101348.66
2022-10-31T06:03:52.566Z,101365.03
2022-10-31T06:08:48.549Z,101379.84
2022-10-31T06:13:46.593Z,101378.88
2022-10-31T06:18:49.471Z,101386.09
2022-10-31T06:23:49.959Z,101374.59
2022-10-31T06:29:18.641Z,101388.22
2022-10-31T06:34:27.722Z,101394.56
2022-10-31T06:39:21.373Z,101380.28
2022-10-31T06:44:14.336Z,101380.34
2022-10-31T06:49:43.454Z,101419.06
2022-10-31T06:54:41.006Z,101384.88
2022-10-31T06:59:35.248Z,101404.31
2022-10-31T07:04:40.289Z,101389.34
2022-10-31T07:09:33.936Z,101387.97
2022-10-31T07:14:30.216Z,101416.41
2022-10-31T07:19:23.552Z,101421.91
2022-10-31T07:24:16.798Z,101392.22
2022-10-31T07:29:10.184Z,101420.50
2022-10-31T07:34:04.014Z,101427.69
2022-10-31T07:39:20.671Z,101437.53
2022-10-31T07:44:13.480Z,101428.06
2022-10-31T07:49:33.085Z,101401.97
2022-10-31T07:54:45.698Z,101415.97
2022-10-31T07:59:39.619Z,101433.22
2022-10-31T08:04:33.677Z,101434.16
2022-10-31T08:09:45.109Z,101459.50
2022-10-31T08:14:46.813Z,101457.66
2022-10-31T08:19:43.782Z,101425.59
2022-10-31T08:29:33.730Z,101451.41
2022-10-31T08:34:27.168Z,101434.25
2022-10-31T08:39:40.458Z,101453.97
2022-10-31T08:44:33.863Z,101417.09
2022-10-31T08:49:27.325Z,101429.94
2022-10-31T08:54:21.279Z,101447.97
2022-10-31T08:59:23.873Z,101423.69
2022-10-31T09:04:43.455Z,101453.03
2022-10-31T09:09:36.827Z,101411.22
2022-10-31T09:14:30.395Z,101432.66
2022-10-31T09:19:44.035Z,101431.94
2022-10-31T09:24:37.014Z,101411.91
2022-10-31T09:29:33.695Z,101406.78
2022-10-31T09:34:30.275Z,101447.47
2022-10-31T09:39:31.326Z,101421.88
2022-10-31T09:45:06.245Z,101429.84
2022-10-31T09:50:07.909Z,101434.31
2022-10-31T09:55:18.998Z,101435.25
2022-10-31T10:00:33.621Z,101429.94
2022-10-31T10:05:34.634Z,101411.91
2022-10-31T10:10:49.348Z,101433.44
2022-10-31T10:16:10.980Z,101417.59
2022-10-31T10:21:44.164Z,101414.94
2022-10-31T10:26:39.777Z,101410.66
2022-10-31T10:31:40.834Z,101389.88
2022-10-31T10:37:04.706Z,101422.81
2022-10-31T10:42:16.730Z,101389.97
2022-10-31T10:47:28.842Z,101378.53
2022-10-31T10:52:54.670Z,101405.09
2022-10-31T10:58:07.597Z,101395.72
2022-10-31T11:03:01.649Z,101401.69
2022-10-31T11:07:54.962Z,101394.56
2022-10-31T11:13:20.414Z,101381.47
2022-10-31T11:23:20.486Z,101381.38
2022-10-31T11:28:14.123Z,101375.97
2022-10-31T11:33:07.081Z,101388.31
2022-10-31T11:38:03.725Z,101372.63
2022-10-31T11:43:00.589Z,101370.59
2022-10-31T11:47:59.772Z,101358.03
2022-10-31T11:57:54.055Z,101332.75
2022-10-31T12:02:48.339Z,101330.97
2022-10-31T12:07:42.851Z,101348.81
2022-10-31T12:12:47.777Z,101346.84
2022-10-31T12:17:59.696Z,101347.03
2022-10-31T12:23:17.234Z,101338.88
2022-10-31T12:28:39.020Z,101328.09
2022-10-31T12:33:54.604Z,101311.56
2022-10-31T12:39:17.632Z,101323.63
2022-10-31T12:44:16.235Z,101314.59
2022-10-31T12:49:16.222Z,101309.28
2022-10-31T12:54:23.170Z,101303.97
2022-10-31T12:59:45.473Z,101305.69
2022-10-31T13:05:05.950Z,101287.34
2022-10-31T13:10:21.776Z,101272.31
2022-10-31T13:15:39.777Z,101282.88
2022-10-31T13:20:48.438Z,101289.75
2022-10-31T13:26:15.842Z,101274.75
2022-10-31T13:31:29.442Z,101264.41
2022-10-31T13:36:37.856Z,101266.97
2022-10-31T13:42:14.564Z,101265.25
2022-10-31T13:47:23.299Z,101242.06
2022-10-31T13:52:26.206Z,101251.88
2022-10-31T13:57:45.195Z,101262.69
2022-10-31T14:02:38.824Z,101261.06
2022-10-31T14:07:32.956Z,101250.34
2022-10-31T14:12:38.068Z,101254.72
2022-10-31T14:17:39.506Z,101265.34
2022-10-31T14:22:38.632Z,101253.88
2022-10-31T14:27:37.891Z,101239.53
2022-10-31T14:32:32.128Z,101258.22
2022-10-31T14:38:18.368Z,101230.63
2022-10-31T14:43:17.023Z,101253.88
2022-10-31T14:48:31.069Z,101244.38
2022-10-31T14:53:31.296Z,101249.66
2022-10-31T15:03:36.644Z,101239.31
2022-10-31T15:08:39.783Z,101211.53
2022-10-31T15:13:34.003Z,101237.34
2022-10-31T15:18:29.500Z,101212.22
2022-10-31T15:23:25.476Z,101233.84
2022-10-31T15:28:25.736Z,101221.56
2022-10-31T15:33:25.761Z,101197.19
2022-10-31T15:38:19.820Z,101206.81
2022-10-31T15:43:17.889Z,101225.69
2022-10-31T15:48:26.688Z,101222.63
2022-10-31T15:53:24.218Z,101226.56
2022-10-31T15:58:18.858Z,101228.84
2022-10-31T16:03:21.074Z,101232.69
2022-10-31T16:08:31.853Z,101229.94
2022-10-31T16:13:34.271Z,101217.41
2022-10-31T16:18:29.569Z,101239.56
2022-10-31T16:23:31.966Z,101231.34
2022-10-31T16:28:32.093Z,101205.91
2022-10-31T16:33:32.535Z,101239.34
2022-10-31T16:38:27.012Z,101217.03
2022-10-31T16:43:21.923Z,101237.75
2022-10-31T16:48:25.158Z,101236.28
2022-10-31T16:53:19.452Z,101225.34
2022-10-31T16:58:20.704Z,101256.19
2022-10-31T17:03:12.626Z,101257.88
2022-10-31T17:08:06.878Z,101225.50
2022-10-31T17:13:01.954Z,101245.97
2022-10-31T17:17:55.935Z,101276.31
2022-10-31T17:22:49.221Z,101293.94
2022-10-31T17:27:46.438Z,101302.66
2022-10-31T17:32:42.299Z,101309.69
2022-10-31T17:37:35.015Z,101300.94
2022-10-31T17:42:28.853Z,101283.91
2022-10-31T17:47:22.586Z,101300.00
2022-10-31T17:52:15.889Z,101309.78
2022-10-31T17:57:10.280Z,101301.03
2022-10-31T18:02:11.873Z,101301.66
2022-10-31T18:07:05.380Z,101293.75
2022-10-31T18:11:58.655Z,101299.50
2022-10-31T18:16:52.599Z,101289.38
2022-10-31T18:21:52.446Z,101284.28
2022-10-31T18:26:45.603Z,101305.00
2022-10-31T18:31:39.554Z,101292.72
2022-10-31T18:36:33.163Z,101283.75
2022-10-31T18:41:25.749Z,101289.06
2022-10-31T18:46:19.657Z,101289.91
2022-10-31T18:51:18.439Z,101289.06
2022-10-31T18:56:12.798Z,101253.66
2022-10-31T19:01:08.677Z,101288.19
2022-10-31T19:06:03.711Z,101277.00
2022-10-31T19:11:02.212Z,101283.66
2022-10-31T19:15:56.522Z,101284.44
2022-10-31T19:20:50.983Z,101284.50
2022-10-31T19:30:37.940Z,101295.88
2022-10-31T19:35:32.151Z,101304.22
2022-10-31T19:40:29.887Z,101300.53
2022-10-31T19:45:24.004Z,101288.13
2022-10-31T19:50:18.487Z,101295.38
2022-10-31T19:55:11.388Z,101320.41
2022-10-31T20:00:07.049Z,101284.53
2022-10-31T20:05:04.845Z,101317.41
2022-10-31T20:09:59.525Z,101293.44
2022-10-31T20:14:53.871Z,101313.03
2022-10-31T20:19:47.200Z,101296.91
2022-10-31T20:24:41.419Z,101313.38
2022-10-31T20:29:34.774Z,101333.41
2022-10-31T20:34:28.246Z,101322.63
2022-10-31T20:39:22.367Z,101331.50
2022-10-31T20:44:15.412Z,101339.22
2022-10-31T20:49:09.023Z,101343.84
2022-10-31T20:54:02.523Z,101319.78
2022-10-31T20:58:56.638Z,101344.72
2022-10-31T21:03:51.368Z,101348.22
2022-10-31T21:08:44.409Z,101356.91
2022-10-31T21:13:41.449Z,101338.97
2022-10-31T21:18:39.554Z,101331.19
2022-10-31T21:23:33.853Z,101363.91
2022-10-31T21:28:28.323Z,101341.63
2022-10-31T21:33:21.787Z,101338.19
2022-10-31T21:38:15.372Z,101352.69
2022-10-31T21:43:09.279Z,101348.22
2022-10-31T21:48:07.360Z,101353.47
2022-10-31T21:53:20.450Z,101350.97
2022-10-31T21:58:19.016Z,101358.63
2022-10-31T22:03:12.917Z,101335.19
2022-10-31T22:08:07.681Z,101347.22
2022-10-31T22:13:03.006Z,101334.44
2022-10-31T22:17:56.930Z,101326.56
2022-10-31T22:22:51.653Z,101344.38
2022-10-31T22:27:45.694Z,101327.22
2022-10-31T22:32:40.452Z,101327.50
2022-10-31T22:37:34.692Z,101344.38
2022-10-31T22:42:28.707Z,101327.75
2022-10-31T22:47:23.047Z,101333.25
2022-10-31T22:52:17.661Z,101343.16
2022-10-31T22:57:10.380Z,101340.34
2022-10-31T23:02:06.033Z,101343.00
2022-10-31T23:07:03.574Z,101349.19
2022-10-31T23:12:16.774Z,101340.59
2022-10-31T23:17:18.039Z,101350.53
2022-10-31T23:22:11.540Z,101351.38
2022-10-31T23:27:12.449Z,101332.22
2022-10-31T23:32:07.459Z,101327.69
2022-10-31T23:37:00.847Z,101325.09
2022-10-31T23:41:54.094Z,101332.72
2022-10-31T23:46:47.620Z,101328.91
2022-10-31T23:51:40.831Z,101321.72
2022-10-31T23:56:34.983Z,101301.09
